sensor_id;sensor_type;location;lat;lon;timestamp;P1;durP1;ratioP1;P2;durP2;ratioP2
49578;SDS011;35483;50.828;3.228;2022-07-22T00:01:25;5.75;;;3.20;;
49578;SDS011;35483;50.828;3.228;2022-07-22T00:03:51;8.07;;;3.47;;
49578;SDS011;35483;50.828;3.228;2022-07-22T00:06:17;7.97;;;3.67;;
49578;SDS011;35483;50.828;3.228;2022-07-22T00:08:43;8.05;;;3.90;;
49578;SDS011;35483;50.828;3.228;2022-07-22T00:11:09;8.73;;;4.05;;
49578;SDS011;35483;50.828;3.228;2022-07-22T00:13:34;9.70;;;3.40;;
49578;SDS011;35483;50.828;3.228;2022-07-22T00:16:00;8.85;;;3.95;;
49578;SDS011;35483;50.828;3.228;2022-07-22T00:18:26;7.35;;;3.10;;
49578;SDS011;35483;50.828;3.228;2022-07-22T00:20:51;9.07;;;3.92;;
49578;SDS011;35483;50.828;3.228;2022-07-22T00:23:17;6.80;;;3.20;;
49578;SDS011;35483;50.828;3.228;2022-07-22T00:25:43;7.40;;;3.20;;
49578;SDS011;35483;50.828;3.228;2022-07-22T00:28:09;7.97;;;3.28;;
49578;SDS011;35483;50.828;3.228;2022-07-22T00:30:34;8.25;;;3.63;;
49578;SDS011;35483;50.828;3.228;2022-07-22T00:33:00;7.65;;;3.28;;
49578;SDS011;35483;50.828;3.228;2022-07-22T00:35:26;6.50;;;2.88;;
49578;SDS011;35483;50.828;3.228;2022-07-22T00:37:52;9.73;;;3.53;;
49578;SDS011;35483;50.828;3.228;2022-07-22T00:40:17;6.95;;;3.10;;
49578;SDS011;35483;50.828;3.228;2022-07-22T00:42:43;5.65;;;2.97;;
49578;SDS011;35483;50.828;3.228;2022-07-22T00:45:11;7.82;;;3.03;;
49578;SDS011;35483;50.828;3.228;2022-07-22T00:47:37;6.78;;;3.10;;
49578;SDS011;35483;50.828;3.228;2022-07-22T00:50:03;7.55;;;3.42;;
49578;SDS011;35483;50.828;3.228;2022-07-22T00:52:30;6.90;;;3.53;;
49578;SDS011;35483;50.828;3.228;2022-07-22T00:54:58;8.90;;;3.53;;
49578;SDS011;35483;50.828;3.228;2022-07-22T00:57:24;7.00;;;3.22;;
49578;SDS011;35483;50.828;3.228;2022-07-22T00:59:50;8.13;;;3.17;;
49578;SDS011;35483;50.828;3.228;2022-07-22T01:02:16;9.05;;;3.70;;
49578;SDS011;35483;50.828;3.228;2022-07-22T01:04:42;5.88;;;3.55;;
49578;SDS011;35483;50.828;3.228;2022-07-22T01:07:07;6.25;;;3.35;;
49578;SDS011;35483;50.828;3.228;2022-07-22T01:09:33;5.38;;;3.13;;
49578;SDS011;35483;50.828;3.228;2022-07-22T01:11:59;6.50;;;3.38;;
49578;SDS011;35483;50.828;3.228;2022-07-22T01:14:26;6.75;;;3.55;;
49578;SDS011;35483;50.828;3.228;2022-07-22T01:16:52;7.35;;;3.20;;
49578;SDS011;35483;50.828;3.228;2022-07-22T01:19:18;10.07;;;3.63;;
49578;SDS011;35483;50.828;3.228;2022-07-22T01:21:44;7.10;;;3.15;;
49578;SDS011;35483;50.828;3.228;2022-07-22T01:24:11;7.13;;;3.75;;
49578;SDS011;35483;50.828;3.228;2022-07-22T01:26:36;6.38;;;3.45;;
49578;SDS011;35483;50.828;3.228;2022-07-22T01:29:03;7.93;;;3.72;;
49578;SDS011;35483;50.828;3.228;2022-07-22T01:31:29;8.30;;;3.17;;
49578;SDS011;35483;50.828;3.228;2022-07-22T01:33:55;8.35;;;3.42;;
49578;SDS011;35483;50.828;3.228;2022-07-22T01:36:20;6.35;;;3.35;;
49578;SDS011;35483;50.828;3.228;2022-07-22T01:38:46;9.75;;;3.67;;
49578;SDS011;35483;50.828;3.228;2022-07-22T01:41:12;6.88;;;3.08;;
49578;SDS011;35483;50.828;3.228;2022-07-22T01:43:38;9.88;;;3.47;;
49578;SDS011;35483;50.828;3.228;2022-07-22T01:46:04;6.05;;;3.20;;
49578;SDS011;35483;50.828;3.228;2022-07-22T01:48:30;7.47;;;3.42;;
49578;SDS011;35483;50.828;3.228;2022-07-22T01:50:56;8.57;;;3.00;;
49578;SDS011;35483;50.828;3.228;2022-07-22T01:53:23;5.05;;;3.10;;
49578;SDS011;35483;50.828;3.228;2022-07-22T01:55:48;5.53;;;3.40;;
49578;SDS011;35483;50.828;3.228;2022-07-22T01:58:14;9.45;;;3.55;;
49578;SDS011;35483;50.828;3.228;2022-07-22T02:00:40;7.75;;;2.95;;
49578;SDS011;35483;50.828;3.228;2022-07-22T02:03:06;4.78;;;3.55;;
49578;SDS011;35483;50.828;3.228;2022-07-22T02:05:32;4.80;;;2.85;;
49578;SDS011;35483;50.828;3.228;2022-07-22T02:07:59;8.02;;;3.60;;
49578;SDS011;35483;50.828;3.228;2022-07-22T02:10:29;8.20;;;3.95;;
49578;SDS011;35483;50.828;3.228;2022-07-22T02:12:56;8.43;;;3.83;;
49578;SDS011;35483;50.828;3.228;2022-07-22T02:15:22;8.98;;;3.60;;
49578;SDS011;35483;50.828;3.228;2022-07-22T02:17:48;8.15;;;3.67;;
49578;SDS011;35483;50.828;3.228;2022-07-22T02:20:14;8.80;;;3.65;;
49578;SDS011;35483;50.828;3.228;2022-07-22T02:22:40;8.35;;;3.35;;
49578;SDS011;35483;50.828;3.228;2022-07-22T02:25:06;6.65;;;3.65;;
49578;SDS011;35483;50.828;3.228;2022-07-22T02:27:32;9.20;;;3.53;;
49578;SDS011;35483;50.828;3.228;2022-07-22T02:29:58;7.35;;;3.42;;
49578;SDS011;35483;50.828;3.228;2022-07-22T02:32:23;7.63;;;3.50;;
49578;SDS011;35483;50.828;3.228;2022-07-22T02:34:49;12.55;;;3.83;;
49578;SDS011;35483;50.828;3.228;2022-07-22T02:37:15;7.93;;;3.58;;
49578;SDS011;35483;50.828;3.228;2022-07-22T02:39:41;7.90;;;4.35;;
49578;SDS011;35483;50.828;3.228;2022-07-22T02:42:07;8.95;;;3.75;;
49578;SDS011;35483;50.828;3.228;2022-07-22T02:44:32;6.65;;;3.50;;
49578;SDS011;35483;50.828;3.228;2022-07-22T02:46:58;11.07;;;3.65;;
49578;SDS011;35483;50.828;3.228;2022-07-22T02:49:24;6.25;;;3.22;;
49578;SDS011;35483;50.828;3.228;2022-07-22T02:51:49;5.95;;;4.00;;
49578;SDS011;35483;50.828;3.228;2022-07-22T02:54:15;9.85;;;3.80;;
49578;SDS011;35483;50.828;3.228;2022-07-22T02:56:41;5.78;;;3.40;;
49578;SDS011;35483;50.828;3.228;2022-07-22T02:59:06;11.30;;;3.67;;
49578;SDS011;35483;50.828;3.228;2022-07-22T03:01:32;7.38;;;4.20;;
49578;SDS011;35483;50.828;3.228;2022-07-22T03:03:58;9.65;;;3.90;;
49578;SDS011;35483;50.828;3.228;2022-07-22T03:06:24;7.03;;;4.00;;
49578;SDS011;35483;50.828;3.228;2022-07-22T03:08:49;9.05;;;3.95;;
49578;SDS011;35483;50.828;3.228;2022-07-22T03:11:15;9.73;;;4.03;;
49578;SDS011;35483;50.828;3.228;2022-07-22T03:13:41;5.90;;;3.88;;
49578;SDS011;35483;50.828;3.228;2022-07-22T03:16:06;6.88;;;4.10;;
49578;SDS011;35483;50.828;3.228;2022-07-22T03:18:33;9.20;;;4.10;;
49578;SDS011;35483;50.828;3.228;2022-07-22T03:21:00;9.50;;;4.20;;
49578;SDS011;35483;50.828;3.228;2022-07-22T03:23:25;5.28;;;3.70;;
49578;SDS011;35483;50.828;3.228;2022-07-22T03:25:51;8.52;;;4.45;;
49578;SDS011;35483;50.828;3.228;2022-07-22T03:28:17;6.32;;;3.95;;
49578;SDS011;35483;50.828;3.228;2022-07-22T03:30:42;6.78;;;3.75;;
49578;SDS011;35483;50.828;3.228;2022-07-22T03:33:08;7.75;;;3.97;;
49578;SDS011;35483;50.828;3.228;2022-07-22T03:35:34;6.65;;;3.65;;
49578;SDS011;35483;50.828;3.228;2022-07-22T03:37:59;8.82;;;4.28;;
49578;SDS011;35483;50.828;3.228;2022-07-22T03:40:28;6.70;;;3.80;;
49578;SDS011;35483;50.828;3.228;2022-07-22T03:42:53;7.75;;;3.97;;
49578;SDS011;35483;50.828;3.228;2022-07-22T03:45:20;5.72;;;3.97;;
49578;SDS011;35483;50.828;3.228;2022-07-22T03:47:46;11.93;;;4.00;;
49578;SDS011;35483;50.828;3.228;2022-07-22T03:50:12;7.22;;;4.20;;
49578;SDS011;35483;50.828;3.228;2022-07-22T03:52:38;10.05;;;4.05;;
49578;SDS011;35483;50.828;3.228;2022-07-22T03:55:04;6.57;;;4.20;;
49578;SDS011;35483;50.828;3.228;2022-07-22T03:57:31;7.47;;;3.63;;
49578;SDS011;35483;50.828;3.228;2022-07-22T03:59:56;10.43;;;4.57;;
49578;SDS011;35483;50.828;3.228;2022-07-22T04:02:22;10.15;;;4.53;;
49578;SDS011;35483;50.828;3.228;2022-07-22T04:04:50;8.30;;;4.00;;
49578;SDS011;35483;50.828;3.228;2022-07-22T04:07:15;6.72;;;3.30;;
49578;SDS011;35483;50.828;3.228;2022-07-22T04:09:41;8.63;;;3.65;;
49578;SDS011;35483;50.828;3.228;2022-07-22T04:12:10;9.30;;;3.88;;
49578;SDS011;35483;50.828;3.228;2022-07-22T04:14:35;7.93;;;3.83;;
49578;SDS011;35483;50.828;3.228;2022-07-22T04:17:01;8.43;;;3.70;;
49578;SDS011;35483;50.828;3.228;2022-07-22T04:19:27;5.70;;;3.35;;
49578;SDS011;35483;50.828;3.228;2022-07-22T04:21:52;8.40;;;3.85;;
49578;SDS011;35483;50.828;3.228;2022-07-22T04:24:18;8.70;;;3.55;;
49578;SDS011;35483;50.828;3.228;2022-07-22T04:26:44;8.25;;;3.33;;
49578;SDS011;35483;50.828;3.228;2022-07-22T04:29:10;7.28;;;3.38;;
49578;SDS011;35483;50.828;3.228;2022-07-22T04:31:36;8.07;;;3.10;;
49578;SDS011;35483;50.828;3.228;2022-07-22T04:34:01;7.15;;;3.67;;
49578;SDS011;35483;50.828;3.228;2022-07-22T04:36:27;7.80;;;3.53;;
49578;SDS011;35483;50.828;3.228;2022-07-22T04:38:53;8.82;;;3.90;;
49578;SDS011;35483;50.828;3.228;2022-07-22T04:41:19;10.10;;;3.60;;
49578;SDS011;35483;50.828;3.228;2022-07-22T04:43:45;5.90;;;3.50;;
49578;SDS011;35483;50.828;3.228;2022-07-22T04:46:10;6.65;;;3.70;;
49578;SDS011;35483;50.828;3.228;2022-07-22T04:48:36;9.10;;;4.10;;
49578;SDS011;35483;50.828;3.228;2022-07-22T04:51:02;9.43;;;3.95;;
49578;SDS011;35483;50.828;3.228;2022-07-22T04:53:28;7.00;;;4.30;;
49578;SDS011;35483;50.828;3.228;2022-07-22T04:55:54;6.85;;;3.95;;
49578;SDS011;35483;50.828;3.228;2022-07-22T04:58:20;8.20;;;4.30;;
49578;SDS011;35483;50.828;3.228;2022-07-22T05:00:46;7.88;;;4.05;;
49578;SDS011;35483;50.828;3.228;2022-07-22T05:03:12;6.93;;;4.43;;
49578;SDS011;35483;50.828;3.228;2022-07-22T05:05:38;9.98;;;4.82;;
49578;SDS011;35483;50.828;3.228;2022-07-22T05:08:04;7.43;;;5.22;;
49578;SDS011;35483;50.828;3.228;2022-07-22T05:10:30;8.15;;;4.85;;
49578;SDS011;35483;50.828;3.228;2022-07-22T05:12:57;9.63;;;4.30;;
49578;SDS011;35483;50.828;3.228;2022-07-22T05:15:26;7.95;;;4.65;;
49578;SDS011;35483;50.828;3.228;2022-07-22T05:17:53;8.95;;;5.03;;
49578;SDS011;35483;50.828;3.228;2022-07-22T05:20:19;7.57;;;4.60;;
49578;SDS011;35483;50.828;3.228;2022-07-22T05:22:45;6.60;;;4.45;;
49578;SDS011;35483;50.828;3.228;2022-07-22T05:25:10;8.27;;;5.10;;
49578;SDS011;35483;50.828;3.228;2022-07-22T05:27:36;10.35;;;4.22;;
49578;SDS011;35483;50.828;3.228;2022-07-22T05:30:02;8.73;;;4.30;;
49578;SDS011;35483;50.828;3.228;2022-07-22T05:32:28;8.40;;;3.88;;
49578;SDS011;35483;50.828;3.228;2022-07-22T05:34:54;12.82;;;3.88;;
49578;SDS011;35483;50.828;3.228;2022-07-22T05:37:20;7.22;;;4.22;;
49578;SDS011;35483;50.828;3.228;2022-07-22T05:39:45;8.60;;;3.85;;
49578;SDS011;35483;50.828;3.228;2022-07-22T05:42:11;6.15;;;3.90;;
49578;SDS011;35483;50.828;3.228;2022-07-22T05:44:37;6.63;;;3.80;;
49578;SDS011;35483;50.828;3.228;2022-07-22T05:47:02;9.95;;;3.40;;
49578;SDS011;35483;50.828;3.228;2022-07-22T05:49:28;6.40;;;3.25;;
49578;SDS011;35483;50.828;3.228;2022-07-22T05:51:54;6.28;;;3.35;;
49578;SDS011;35483;50.828;3.228;2022-07-22T05:54:23;6.05;;;3.33;;
49578;SDS011;35483;50.828;3.228;2022-07-22T05:56:48;6.22;;;3.45;;
49578;SDS011;35483;50.828;3.228;2022-07-22T05:59:14;6.38;;;3.22;;
49578;SDS011;35483;50.828;3.228;2022-07-22T06:01:41;6.63;;;3.60;;
49578;SDS011;35483;50.828;3.228;2022-07-22T06:04:06;6.70;;;3.78;;
49578;SDS011;35483;50.828;3.228;2022-07-22T06:06:32;6.93;;;3.80;;
49578;SDS011;35483;50.828;3.228;2022-07-22T06:08:58;5.13;;;3.33;;
49578;SDS011;35483;50.828;3.228;2022-07-22T06:11:23;6.43;;;3.00;;
49578;SDS011;35483;50.828;3.228;2022-07-22T06:13:49;7.20;;;2.80;;
49578;SDS011;35483;50.828;3.228;2022-07-22T06:16:15;7.10;;;3.20;;
49578;SDS011;35483;50.828;3.228;2022-07-22T06:18:41;6.00;;;2.50;;
49578;SDS011;35483;50.828;3.228;2022-07-22T06:21:06;7.88;;;2.90;;
49578;SDS011;35483;50.828;3.228;2022-07-22T06:23:32;5.60;;;2.60;;
49578;SDS011;35483;50.828;3.228;2022-07-22T06:25:59;6.05;;;3.13;;
49578;SDS011;35483;50.828;3.228;2022-07-22T06:28:24;4.72;;;2.67;;
49578;SDS011;35483;50.828;3.228;2022-07-22T06:30:50;5.30;;;2.60;;
49578;SDS011;35483;50.828;3.228;2022-07-22T06:33:16;5.13;;;2.50;;
49578;SDS011;35483;50.828;3.228;2022-07-22T06:35:42;4.97;;;2.50;;
49578;SDS011;35483;50.828;3.228;2022-07-22T06:38:07;10.20;;;3.25;;
49578;SDS011;35483;50.828;3.228;2022-07-22T06:40:34;6.85;;;2.92;;
49578;SDS011;35483;50.828;3.228;2022-07-22T06:43:00;6.28;;;2.50;;
49578;SDS011;35483;50.828;3.228;2022-07-22T06:45:27;6.13;;;2.70;;
49578;SDS011;35483;50.828;3.228;2022-07-22T06:47:53;5.18;;;2.22;;
49578;SDS011;35483;50.828;3.228;2022-07-22T06:50:19;6.45;;;2.83;;
49578;SDS011;35483;50.828;3.228;2022-07-22T06:52:45;10.15;;;2.50;;
49578;SDS011;35483;50.828;3.228;2022-07-22T06:55:11;5.03;;;2.45;;
49578;SDS011;35483;50.828;3.228;2022-07-22T06:57:37;7.30;;;2.83;;
49578;SDS011;35483;50.828;3.228;2022-07-22T07:00:04;7.18;;;2.42;;
49578;SDS011;35483;50.828;3.228;2022-07-22T07:02:34;6.75;;;2.80;;
49578;SDS011;35483;50.828;3.228;2022-07-22T07:05:00;4.50;;;2.22;;
49578;SDS011;35483;50.828;3.228;2022-07-22T07:07:25;8.77;;;3.72;;
49578;SDS011;35483;50.828;3.228;2022-07-22T07:09:51;8.40;;;2.75;;
49578;SDS011;35483;50.828;3.228;2022-07-22T07:12:19;5.45;;;2.50;;
49578;SDS011;35483;50.828;3.228;2022-07-22T07:14:45;7.35;;;2.75;;
49578;SDS011;35483;50.828;3.228;2022-07-22T07:17:10;6.00;;;2.33;;
49578;SDS011;35483;50.828;3.228;2022-07-22T07:19:36;6.45;;;2.55;;
49578;SDS011;35483;50.828;3.228;2022-07-22T07:22:01;8.07;;;2.47;;
49578;SDS011;35483;50.828;3.228;2022-07-22T07:24:27;5.50;;;2.53;;
49578;SDS011;35483;50.828;3.228;2022-07-22T07:26:53;5.93;;;3.13;;
49578;SDS011;35483;50.828;3.228;2022-07-22T07:29:19;6.22;;;3.20;;
49578;SDS011;35483;50.828;3.228;2022-07-22T07:31:44;4.78;;;3.20;;
49578;SDS011;35483;50.828;3.228;2022-07-22T07:34:10;9.63;;;3.55;;
49578;SDS011;35483;50.828;3.228;2022-07-22T07:36:36;6.35;;;2.78;;
49578;SDS011;35483;50.828;3.228;2022-07-22T07:39:01;6.32;;;2.97;;
49578;SDS011;35483;50.828;3.228;2022-07-22T07:41:27;5.75;;;2.40;;
49578;SDS011;35483;50.828;3.228;2022-07-22T07:43:53;5.88;;;2.70;;
49578;SDS011;35483;50.828;3.228;2022-07-22T07:46:18;4.35;;;2.88;;
49578;SDS011;35483;50.828;3.228;2022-07-22T07:48:44;3.78;;;2.53;;
49578;SDS011;35483;50.828;3.228;2022-07-22T07:51:12;4.72;;;2.83;;
49578;SDS011;35483;50.828;3.228;2022-07-22T07:53:37;3.65;;;2.83;;
49578;SDS011;35483;50.828;3.228;2022-07-22T07:56:05;5.90;;;2.88;;
49578;SDS011;35483;50.828;3.228;2022-07-22T07:58:31;4.20;;;2.25;;
49578;SDS011;35483;50.828;3.228;2022-07-22T08:00:57;5.85;;;2.28;;
49578;SDS011;35483;50.828;3.228;2022-07-22T08:03:23;7.05;;;3.08;;
49578;SDS011;35483;50.828;3.228;2022-07-22T08:05:48;5.05;;;2.42;;
49578;SDS011;35483;50.828;3.228;2022-07-22T08:08:14;6.57;;;2.88;;
49578;SDS011;35483;50.828;3.228;2022-07-22T08:10:40;3.95;;;2.55;;
49578;SDS011;35483;50.828;3.228;2022-07-22T08:13:05;4.75;;;2.63;;
49578;SDS011;35483;50.828;3.228;2022-07-22T08:15:31;4.45;;;3.00;;
49578;SDS011;35483;50.828;3.228;2022-07-22T08:17:57;5.60;;;3.05;;
49578;SDS011;35483;50.828;3.228;2022-07-22T08:20:24;5.28;;;3.28;;
49578;SDS011;35483;50.828;3.228;2022-07-22T08:22:52;5.68;;;2.97;;
49578;SDS011;35483;50.828;3.228;2022-07-22T08:25:18;4.80;;;2.92;;
49578;SDS011;35483;50.828;3.228;2022-07-22T08:27:44;5.28;;;3.28;;
49578;SDS011;35483;50.828;3.228;2022-07-22T08:30:11;7.50;;;2.97;;
49578;SDS011;35483;50.828;3.228;2022-07-22T08:32:37;4.07;;;2.83;;
49578;SDS011;35483;50.828;3.228;2022-07-22T08:35:03;5.32;;;3.28;;
49578;SDS011;35483;50.828;3.228;2022-07-22T08:37:30;7.05;;;4.13;;
49578;SDS011;35483;50.828;3.228;2022-07-22T08:39:56;6.80;;;3.95;;
49578;SDS011;35483;50.828;3.228;2022-07-22T08:42:23;5.53;;;3.63;;
49578;SDS011;35483;50.828;3.228;2022-07-22T08:44:50;5.15;;;3.58;;
49578;SDS011;35483;50.828;3.228;2022-07-22T08:47:21;6.43;;;3.47;;
49578;SDS011;35483;50.828;3.228;2022-07-22T08:49:47;5.97;;;3.38;;
49578;SDS011;35483;50.828;3.228;2022-07-22T08:52:13;9.80;;;4.38;;
49578;SDS011;35483;50.828;3.228;2022-07-22T08:54:39;8.32;;;3.78;;
49578;SDS011;35483;50.828;3.228;2022-07-22T08:57:04;6.20;;;4.07;;
49578;SDS011;35483;50.828;3.228;2022-07-22T08:59:32;3.90;;;3.45;;
49578;SDS011;35483;50.828;3.228;2022-07-22T09:02:05;4.82;;;3.25;;
49578;SDS011;35483;50.828;3.228;2022-07-22T09:04:32;6.93;;;4.10;;
49578;SDS011;35483;50.828;3.228;2022-07-22T09:07:29;6.05;;;3.70;;
49578;SDS011;35483;50.828;3.228;2022-07-22T09:09:57;4.55;;;3.25;;
49578;SDS011;35483;50.828;3.228;2022-07-22T09:12:24;5.15;;;3.53;;
49578;SDS011;35483;50.828;3.228;2022-07-22T09:14:53;7.45;;;3.55;;
49578;SDS011;35483;50.828;3.228;2022-07-22T09:17:23;4.55;;;3.28;;
49578;SDS011;35483;50.828;3.228;2022-07-22T09:22:34;7.50;;;3.97;;
49578;SDS011;35483;50.828;3.228;2022-07-22T09:27:44;6.30;;;3.70;;
49578;SDS011;35483;50.828;3.228;2022-07-22T09:30:14;5.10;;;3.30;;
49578;SDS011;35483;50.828;3.228;2022-07-22T09:32:47;8.70;;;3.80;;
49578;SDS011;35483;50.828;3.228;2022-07-22T09:35:14;5.63;;;3.50;;
49578;SDS011;35483;50.828;3.228;2022-07-22T09:37:55;8.43;;;4.05;;
49578;SDS011;35483;50.828;3.228;2022-07-22T09:40:28;7.38;;;3.92;;
49578;SDS011;35483;50.828;3.228;2022-07-22T09:43:01;6.60;;;3.90;;
49578;SDS011;35483;50.828;3.228;2022-07-22T09:45:29;5.57;;;3.40;;
49578;SDS011;35483;50.828;3.228;2022-07-22T09:47:56;6.72;;;3.50;;
49578;SDS011;35483;50.828;3.228;2022-07-22T09:50:24;5.03;;;3.33;;
49578;SDS011;35483;50.828;3.228;2022-07-22T09:52:51;4.72;;;3.60;;
49578;SDS011;35483;50.828;3.228;2022-07-22T09:55:19;7.18;;;3.22;;
49578;SDS011;35483;50.828;3.228;2022-07-22T09:57:46;4.75;;;3.42;;
49578;SDS011;35483;50.828;3.228;2022-07-22T10:00:14;5.15;;;3.22;;
49578;SDS011;35483;50.828;3.228;2022-07-22T10:05:19;7.50;;;3.30;;
49578;SDS011;35483;50.828;3.228;2022-07-22T10:07:47;7.68;;;3.47;;
49578;SDS011;35483;50.828;3.228;2022-07-22T10:10:19;5.18;;;3.85;;
49578;SDS011;35483;50.828;3.228;2022-07-22T10:12:50;4.07;;;3.28;;
49578;SDS011;35483;50.828;3.228;2022-07-22T10:15:18;6.60;;;3.63;;
49578;SDS011;35483;50.828;3.228;2022-07-22T10:17:45;5.03;;;3.67;;
49578;SDS011;35483;50.828;3.228;2022-07-22T10:20:15;6.47;;;3.60;;
49578;SDS011;35483;50.828;3.228;2022-07-22T10:25:26;4.50;;;3.80;;
49578;SDS011;35483;50.828;3.228;2022-07-22T10:27:58;8.50;;;4.55;;
49578;SDS011;35483;50.828;3.228;2022-07-22T10:30:30;6.53;;;4.20;;
49578;SDS011;35483;50.828;3.228;2022-07-22T10:33:01;5.45;;;3.80;;
49578;SDS011;35483;50.828;3.228;2022-07-22T10:35:27;9.63;;;4.18;;
49578;SDS011;35483;50.828;3.228;2022-07-22T10:37:54;5.10;;;3.95;;
49578;SDS011;35483;50.828;3.228;2022-07-22T10:40:23;6.50;;;4.60;;
49578;SDS011;35483;50.828;3.228;2022-07-22T10:45:30;5.53;;;4.25;;
49578;SDS011;35483;50.828;3.228;2022-07-22T10:48:07;5.78;;;4.30;;
49578;SDS011;35483;50.828;3.228;2022-07-22T10:53:03;6.97;;;4.65;;
49578;SDS011;35483;50.828;3.228;2022-07-22T10:55:30;5.35;;;4.72;;
49578;SDS011;35483;50.828;3.228;2022-07-22T10:57:57;6.70;;;4.50;;
49578;SDS011;35483;50.828;3.228;2022-07-22T11:00:23;7.35;;;4.22;;
49578;SDS011;35483;50.828;3.228;2022-07-22T11:02:49;5.03;;;4.53;;
49578;SDS011;35483;50.828;3.228;2022-07-22T11:05:23;6.95;;;4.65;;
49578;SDS011;35483;50.828;3.228;2022-07-22T11:07:54;5.00;;;4.32;;
49578;SDS011;35483;50.828;3.228;2022-07-22T11:10:20;6.85;;;4.47;;
49578;SDS011;35483;50.828;3.228;2022-07-22T11:12:47;7.97;;;5.30;;
49578;SDS011;35483;50.828;3.228;2022-07-22T11:15:15;6.38;;;4.65;;
49578;SDS011;35483;50.828;3.228;2022-07-22T11:17:55;5.53;;;4.32;;
49578;SDS011;35483;50.828;3.228;2022-07-22T11:20:22;6.63;;;4.00;;
49578;SDS011;35483;50.828;3.228;2022-07-22T11:22:48;4.40;;;3.58;;
49578;SDS011;35483;50.828;3.228;2022-07-22T11:25:14;8.38;;;4.18;;
49578;SDS011;35483;50.828;3.228;2022-07-22T11:27:48;10.52;;;4.30;;
49578;SDS011;35483;50.828;3.228;2022-07-22T11:30:17;6.70;;;4.20;;
49578;SDS011;35483;50.828;3.228;2022-07-22T11:32:43;7.00;;;3.58;;
49578;SDS011;35483;50.828;3.228;2022-07-22T11:35:12;4.97;;;3.70;;
49578;SDS011;35483;50.828;3.228;2022-07-22T11:37:38;7.78;;;3.63;;
49578;SDS011;35483;50.828;3.228;2022-07-22T11:40:06;4.72;;;3.83;;
49578;SDS011;35483;50.828;3.228;2022-07-22T11:42:33;5.15;;;3.35;;
49578;SDS011;35483;50.828;3.228;2022-07-22T11:45:00;6.10;;;4.47;;
49578;SDS011;35483;50.828;3.228;2022-07-22T11:47:27;8.23;;;4.40;;
49578;SDS011;35483;50.828;3.228;2022-07-22T11:49:52;6.13;;;4.20;;
49578;SDS011;35483;50.828;3.228;2022-07-22T11:52:18;4.85;;;4.13;;
49578;SDS011;35483;50.828;3.228;2022-07-22T11:54:44;4.47;;;4.05;;
49578;SDS011;35483;50.828;3.228;2022-07-22T11:57:11;5.28;;;4.30;;
49578;SDS011;35483;50.828;3.228;2022-07-22T11:59:38;5.00;;;4.25;;
49578;SDS011;35483;50.828;3.228;2022-07-22T12:02:04;6.85;;;4.95;;
49578;SDS011;35483;50.828;3.228;2022-07-22T12:04:33;5.45;;;4.95;;
49578;SDS011;35483;50.828;3.228;2022-07-22T12:07:00;5.53;;;4.47;;
49578;SDS011;35483;50.828;3.228;2022-07-22T12:09:31;7.18;;;5.25;;
49578;SDS011;35483;50.828;3.228;2022-07-22T12:11:59;5.82;;;4.93;;
49578;SDS011;35483;50.828;3.228;2022-07-22T12:14:27;5.57;;;4.70;;
49578;SDS011;35483;50.828;3.228;2022-07-22T12:16:56;6.75;;;5.05;;
49578;SDS011;35483;50.828;3.228;2022-07-22T12:19:23;5.93;;;5.03;;
49578;SDS011;35483;50.828;3.228;2022-07-22T12:21:53;5.15;;;4.65;;
49578;SDS011;35483;50.828;3.228;2022-07-22T12:24:30;6.55;;;5.13;;
49578;SDS011;35483;50.828;3.228;2022-07-22T12:32:01;6.13;;;5.55;;
49578;SDS011;35483;50.828;3.228;2022-07-22T12:34:33;6.20;;;5.60;;
49578;SDS011;35483;50.828;3.228;2022-07-22T12:37:11;7.63;;;5.55;;
49578;SDS011;35483;50.828;3.228;2022-07-22T12:40:02;5.20;;;4.50;;
49578;SDS011;35483;50.828;3.228;2022-07-22T12:42:31;6.75;;;5.72;;
49578;SDS011;35483;50.828;3.228;2022-07-22T12:45:04;6.15;;;4.65;;
49578;SDS011;35483;50.828;3.228;2022-07-22T12:48:32;6.32;;;4.82;;
49578;SDS011;35483;50.828;3.228;2022-07-22T12:53:01;6.07;;;4.90;;
49578;SDS011;35483;50.828;3.228;2022-07-22T12:55:29;6.95;;;4.65;;
49578;SDS011;35483;50.828;3.228;2022-07-22T12:57:55;6.38;;;4.63;;
49578;SDS011;35483;50.828;3.228;2022-07-22T13:00:22;6.15;;;4.63;;
49578;SDS011;35483;50.828;3.228;2022-07-22T13:02:50;4.72;;;4.28;;
49578;SDS011;35483;50.828;3.228;2022-07-22T13:05:17;8.63;;;5.43;;
49578;SDS011;35483;50.828;3.228;2022-07-22T13:07:44;6.10;;;5.57;;
49578;SDS011;35483;50.828;3.228;2022-07-22T13:10:10;6.55;;;5.43;;
49578;SDS011;35483;50.828;3.228;2022-07-22T13:12:37;8.75;;;4.90;;
49578;SDS011;35483;50.828;3.228;2022-07-22T13:17:37;6.45;;;4.90;;
49578;SDS011;35483;50.828;3.228;2022-07-22T13:20:05;5.75;;;5.25;;
49578;SDS011;35483;50.828;3.228;2022-07-22T13:22:33;6.53;;;5.07;;
49578;SDS011;35483;50.828;3.228;2022-07-22T13:24:59;6.07;;;5.32;;
49578;SDS011;35483;50.828;3.228;2022-07-22T13:27:25;9.50;;;6.50;;
49578;SDS011;35483;50.828;3.228;2022-07-22T13:29:51;8.07;;;6.80;;
49578;SDS011;35483;50.828;3.228;2022-07-22T13:32:17;7.50;;;6.20;;
49578;SDS011;35483;50.828;3.228;2022-07-22T13:34:43;8.00;;;7.20;;
49578;SDS011;35483;50.828;3.228;2022-07-22T13:37:09;12.13;;;9.23;;
49578;SDS011;35483;50.828;3.228;2022-07-22T13:39:35;11.38;;;8.60;;
49578;SDS011;35483;50.828;3.228;2022-07-22T13:42:02;8.80;;;7.97;;
49578;SDS011;35483;50.828;3.228;2022-07-22T13:44:28;9.70;;;8.70;;
49578;SDS011;35483;50.828;3.228;2022-07-22T13:46:56;8.80;;;8.00;;
49578;SDS011;35483;50.828;3.228;2022-07-22T13:49:23;8.27;;;7.35;;
49578;SDS011;35483;50.828;3.228;2022-07-22T13:51:49;9.25;;;8.15;;
49578;SDS011;35483;50.828;3.228;2022-07-22T13:54:16;9.02;;;8.15;;
49578;SDS011;35483;50.828;3.228;2022-07-22T13:56:42;10.00;;;8.75;;
49578;SDS011;35483;50.828;3.228;2022-07-22T13:59:09;10.05;;;9.05;;
49578;SDS011;35483;50.828;3.228;2022-07-22T14:01:36;10.88;;;9.77;;
49578;SDS011;35483;50.828;3.228;2022-07-22T14:04:02;13.85;;;10.32;;
49578;SDS011;35483;50.828;3.228;2022-07-22T14:06:29;10.60;;;9.57;;
49578;SDS011;35483;50.828;3.228;2022-07-22T14:08:55;13.10;;;10.95;;
49578;SDS011;35483;50.828;3.228;2022-07-22T14:11:22;12.13;;;10.80;;
49578;SDS011;35483;50.828;3.228;2022-07-22T14:13:51;13.23;;;11.15;;
49578;SDS011;35483;50.828;3.228;2022-07-22T14:16:17;13.80;;;11.55;;
49578;SDS011;35483;50.828;3.228;2022-07-22T14:19:04;14.75;;;13.38;;
49578;SDS011;35483;50.828;3.228;2022-07-22T14:21:30;14.00;;;12.60;;
49578;SDS011;35483;50.828;3.228;2022-07-22T14:23:56;13.20;;;11.90;;
49578;SDS011;35483;50.828;3.228;2022-07-22T14:26:22;16.48;;;14.05;;
49578;SDS011;35483;50.828;3.228;2022-07-22T14:28:48;15.88;;;13.38;;
49578;SDS011;35483;50.828;3.228;2022-07-22T14:31:14;14.75;;;13.27;;
49578;SDS011;35483;50.828;3.228;2022-07-22T14:33:40;15.15;;;13.70;;
49578;SDS011;35483;50.828;3.228;2022-07-22T14:36:06;15.63;;;13.95;;
49578;SDS011;35483;50.828;3.228;2022-07-22T14:38:32;14.82;;;13.20;;
49578;SDS011;35483;50.828;3.228;2022-07-22T14:40:58;15.75;;;13.10;;
49578;SDS011;35483;50.828;3.228;2022-07-22T14:43:24;19.20;;;14.45;;
49578;SDS011;35483;50.828;3.228;2022-07-22T14:45:50;16.08;;;14.05;;
49578;SDS011;35483;50.828;3.228;2022-07-22T14:48:16;15.63;;;14.07;;
49578;SDS011;35483;50.828;3.228;2022-07-22T14:50:42;14.70;;;13.20;;
49578;SDS011;35483;50.828;3.228;2022-07-22T14:53:08;15.85;;;13.93;;
49578;SDS011;35483;50.828;3.228;2022-07-22T14:55:34;14.32;;;13.00;;
49578;SDS011;35483;50.828;3.228;2022-07-22T14:58:01;18.52;;;14.15;;
49578;SDS011;35483;50.828;3.228;2022-07-22T15:00:27;16.73;;;13.48;;
49578;SDS011;35483;50.828;3.228;2022-07-22T15:02:52;15.20;;;13.50;;
49578;SDS011;35483;50.828;3.228;2022-07-22T15:05:18;15.98;;;14.25;;
49578;SDS011;35483;50.828;3.228;2022-07-22T15:07:43;14.77;;;13.13;;
49578;SDS011;35483;50.828;3.228;2022-07-22T15:10:10;15.88;;;13.95;;